sensor_id;sensor_type;location;lat;lon;timestamp;P1;durP1;ratioP1;P2;durP2;ratioP2
41470;SDS011;27211;51.220;5.308;2022-10-16T00:01:13;6.63;;;2.00;;
41470;SDS011;27211;51.220;5.308;2022-10-16T00:03:40;4.85;;;1.88;;
41470;SDS011;27211;51.220;5.308;2022-10-16T00:06:07;7.07;;;3.00;;
41470;SDS011;27211;51.220;5.308;2022-10-16T00:08:34;5.32;;;2.10;;
41470;SDS011;27211;51.220;5.308;2022-10-16T00:11:05;7.38;;;2.10;;
41470;SDS011;27211;51.220;5.308;2022-10-16T00:13:33;6.90;;;1.80;;
41470;SDS011;27211;51.220;5.308;2022-10-16T00:16:01;5.10;;;2.10;;
41470;SDS011;27211;51.220;5.308;2022-10-16T00:18:27;4.68;;;1.90;;
41470;SDS011;27211;51.220;5.308;2022-10-16T00:20:53;6.07;;;1.85;;
41470;SDS011;27211;51.220;5.308;2022-10-16T00:23:26;5.68;;;2.10;;
41470;SDS011;27211;51.220;5.308;2022-10-16T00:25:56;4.28;;;1.80;;
41470;SDS011;27211;51.220;5.308;2022-10-16T00:28:23;4.90;;;1.80;;
41470;SDS011;27211;51.220;5.308;2022-10-16T00:30:49;3.15;;;1.55;;
41470;SDS011;27211;51.220;5.308;2022-10-16T00:33:16;4.60;;;1.70;;
41470;SDS011;27211;51.220;5.308;2022-10-16T00:35:42;5.15;;;1.75;;
41470;SDS011;27211;51.220;5.308;2022-10-16T00:38:08;5.18;;;1.73;;
41470;SDS011;27211;51.220;5.308;2022-10-16T00:40:34;4.03;;;1.67;;
41470;SDS011;27211;51.220;5.308;2022-10-16T00:43:00;3.50;;;1.50;;
41470;SDS011;27211;51.220;5.308;2022-10-16T00:45:26;3.83;;;1.83;;
41470;SDS011;27211;51.220;5.308;2022-10-16T00:47:52;6.55;;;1.70;;
41470;SDS011;27211;51.220;5.308;2022-10-16T00:50:28;7.10;;;1.98;;
41470;SDS011;27211;51.220;5.308;2022-10-16T00:52:56;4.75;;;1.55;;
41470;SDS011;27211;51.220;5.308;2022-10-16T00:55:24;4.93;;;1.60;;
41470;SDS011;27211;51.220;5.308;2022-10-16T00:57:55;3.22;;;1.50;;
41470;SDS011;27211;51.220;5.308;2022-10-16T01:00:24;4.90;;;1.52;;
41470;SDS011;27211;51.220;5.308;2022-10-16T01:02:58;4.05;;;1.58;;
41470;SDS011;27211;51.220;5.308;2022-10-16T01:05:34;4.03;;;1.60;;
41470;SDS011;27211;51.220;5.308;2022-10-16T01:08:13;3.95;;;1.48;;
41470;SDS011;27211;51.220;5.308;2022-10-16T01:10:50;3.53;;;1.52;;
41470;SDS011;27211;51.220;5.308;2022-10-16T01:13:30;4.90;;;1.88;;
41470;SDS011;27211;51.220;5.308;2022-10-16T01:16:07;6.55;;;1.52;;
41470;SDS011;27211;51.220;5.308;2022-10-16T01:24:03;6.17;;;1.50;;
41470;SDS011;27211;51.220;5.308;2022-10-16T01:26:39;5.40;;;1.40;;
41470;SDS011;27211;51.220;5.308;2022-10-16T01:29:09;7.07;;;1.30;;
41470;SDS011;27211;51.220;5.308;2022-10-16T01:31:45;3.50;;;1.23;;
41470;SDS011;27211;51.220;5.308;2022-10-16T01:34:19;3.78;;;1.15;;
41470;SDS011;27211;51.220;5.308;2022-10-16T01:36:53;6.38;;;1.80;;
41470;SDS011;27211;51.220;5.308;2022-10-16T01:39:24;7.88;;;1.52;;
41470;SDS011;27211;51.220;5.308;2022-10-16T01:42:16;4.30;;;1.73;;
41470;SDS011;27211;51.220;5.308;2022-10-16T01:44:49;2.78;;;1.35;;
41470;SDS011;27211;51.220;5.308;2022-10-16T01:47:17;3.10;;;1.50;;
41470;SDS011;27211;51.220;5.308;2022-10-16T01:49:46;5.00;;;1.52;;
41470;SDS011;27211;51.220;5.308;2022-10-16T01:52:17;3.28;;;1.42;;
41470;SDS011;27211;51.220;5.308;2022-10-16T01:54:50;6.03;;;1.40;;
41470;SDS011;27211;51.220;5.308;2022-10-16T01:57:19;3.13;;;1.52;;
41470;SDS011;27211;51.220;5.308;2022-10-16T01:59:47;3.20;;;1.50;;
41470;SDS011;27211;51.220;5.308;2022-10-16T02:02:17;5.47;;;1.40;;
41470;SDS011;27211;51.220;5.308;2022-10-16T02:07:12;5.10;;;2.05;;
41470;SDS011;27211;51.220;5.308;2022-10-16T02:09:41;2.70;;;1.35;;
41470;SDS011;27211;51.220;5.308;2022-10-16T02:12:13;6.10;;;2.13;;
41470;SDS011;27211;51.220;5.308;2022-10-16T02:14:44;5.32;;;1.50;;
41470;SDS011;27211;51.220;5.308;2022-10-16T02:17:14;3.45;;;1.40;;
41470;SDS011;27211;51.220;5.308;2022-10-16T02:19:42;3.78;;;1.55;;
41470;SDS011;27211;51.220;5.308;2022-10-16T02:22:26;4.10;;;1.52;;
41470;SDS011;27211;51.220;5.308;2022-10-16T02:25:00;3.88;;;1.48;;
41470;SDS011;27211;51.220;5.308;2022-10-16T02:27:35;4.75;;;1.40;;
41470;SDS011;27211;51.220;5.308;2022-10-16T02:30:14;3.93;;;1.47;;
41470;SDS011;27211;51.220;5.308;2022-10-16T02:32:57;2.67;;;1.10;;
41470;SDS011;27211;51.220;5.308;2022-10-16T02:35:26;5.00;;;1.40;;
41470;SDS011;27211;51.220;5.308;2022-10-16T02:37:52;7.70;;;1.63;;
41470;SDS011;27211;51.220;5.308;2022-10-16T02:40:19;3.20;;;1.40;;
41470;SDS011;27211;51.220;5.308;2022-10-16T02:42:49;5.25;;;1.50;;
41470;SDS011;27211;51.220;5.308;2022-10-16T02:45:16;5.00;;;1.60;;
41470;SDS011;27211;51.220;5.308;2022-10-16T02:47:42;5.95;;;1.52;;
41470;SDS011;27211;51.220;5.308;2022-10-16T02:50:11;3.45;;;1.35;;
41470;SDS011;27211;51.220;5.308;2022-10-16T02:52:37;5.43;;;1.60;;
41470;SDS011;27211;51.220;5.308;2022-10-16T02:55:03;4.25;;;1.40;;
41470;SDS011;27211;51.220;5.308;2022-10-16T02:57:32;8.50;;;2.20;;
41470;SDS011;27211;51.220;5.308;2022-10-16T03:00:01;3.97;;;1.50;;
41470;SDS011;27211;51.220;5.308;2022-10-16T03:02:29;5.25;;;1.77;;
41470;SDS011;27211;51.220;5.308;2022-10-16T03:04:55;4.15;;;1.30;;
41470;SDS011;27211;51.220;5.308;2022-10-16T03:07:21;3.58;;;1.50;;
41470;SDS011;27211;51.220;5.308;2022-10-16T03:09:46;5.82;;;1.83;;
41470;SDS011;27211;51.220;5.308;2022-10-16T03:12:15;3.33;;;1.30;;
41470;SDS011;27211;51.220;5.308;2022-10-16T03:14:41;3.60;;;1.70;;
41470;SDS011;27211;51.220;5.308;2022-10-16T03:17:10;4.43;;;1.70;;
41470;SDS011;27211;51.220;5.308;2022-10-16T03:19:35;4.00;;;1.48;;
41470;SDS011;27211;51.220;5.308;2022-10-16T03:22:02;4.57;;;1.60;;
41470;SDS011;27211;51.220;5.308;2022-10-16T03:24:28;8.63;;;1.60;;
41470;SDS011;27211;51.220;5.308;2022-10-16T03:26:53;2.97;;;1.42;;
41470;SDS011;27211;51.220;5.308;2022-10-16T03:29:19;4.57;;;1.60;;
41470;SDS011;27211;51.220;5.308;2022-10-16T03:31:45;7.30;;;1.75;;
41470;SDS011;27211;51.220;5.308;2022-10-16T03:34:10;4.28;;;1.65;;
41470;SDS011;27211;51.220;5.308;2022-10-16T03:36:37;4.75;;;1.75;;
41470;SDS011;27211;51.220;5.308;2022-10-16T03:39:02;4.30;;;1.80;;
41470;SDS011;27211;51.220;5.308;2022-10-16T03:41:28;4.63;;;1.77;;
41470;SDS011;27211;51.220;5.308;2022-10-16T03:43:54;5.95;;;1.67;;
41470;SDS011;27211;51.220;5.308;2022-10-16T03:46:20;5.90;;;2.10;;
41470;SDS011;27211;51.220;5.308;2022-10-16T03:48:46;4.03;;;1.60;;
41470;SDS011;27211;51.220;5.308;2022-10-16T03:51:11;4.18;;;1.75;;
41470;SDS011;27211;51.220;5.308;2022-10-16T03:53:40;4.53;;;1.63;;
41470;SDS011;27211;51.220;5.308;2022-10-16T03:56:06;4.18;;;1.63;;
41470;SDS011;27211;51.220;5.308;2022-10-16T03:58:31;6.57;;;1.90;;
41470;SDS011;27211;51.220;5.308;2022-10-16T04:00:57;4.55;;;1.80;;
41470;SDS011;27211;51.220;5.308;2022-10-16T04:03:23;7.05;;;2.20;;
41470;SDS011;27211;51.220;5.308;2022-10-16T04:05:49;4.65;;;1.80;;
41470;SDS011;27211;51.220;5.308;2022-10-16T04:08:16;4.78;;;1.60;;
41470;SDS011;27211;51.220;5.308;2022-10-16T04:10:42;5.70;;;1.95;;
41470;SDS011;27211;51.220;5.308;2022-10-16T04:13:11;4.30;;;1.80;;
41470;SDS011;27211;51.220;5.308;2022-10-16T04:15:37;7.38;;;1.90;;
41470;SDS011;27211;51.220;5.308;2022-10-16T04:18:04;5.60;;;2.30;;
41470;SDS011;27211;51.220;5.308;2022-10-16T04:20:30;5.05;;;2.10;;
41470;SDS011;27211;51.220;5.308;2022-10-16T04:22:57;5.60;;;1.73;;
41470;SDS011;27211;51.220;5.308;2022-10-16T04:25:23;5.03;;;1.88;;
41470;SDS011;27211;51.220;5.308;2022-10-16T04:27:49;5.43;;;2.13;;
41470;SDS011;27211;51.220;5.308;2022-10-16T04:30:18;3.75;;;1.75;;
41470;SDS011;27211;51.220;5.308;2022-10-16T04:32:47;6.45;;;2.20;;
41470;SDS011;27211;51.220;5.308;2022-10-16T04:35:14;4.32;;;1.85;;
41470;SDS011;27211;51.220;5.308;2022-10-16T04:37:41;5.72;;;1.88;;
41470;SDS011;27211;51.220;5.308;2022-10-16T04:40:13;7.78;;;2.00;;
41470;SDS011;27211;51.220;5.308;2022-10-16T04:42:39;4.47;;;1.75;;
41470;SDS011;27211;51.220;5.308;2022-10-16T04:45:05;6.22;;;2.03;;
41470;SDS011;27211;51.220;5.308;2022-10-16T04:47:32;4.20;;;2.10;;
41470;SDS011;27211;51.220;5.308;2022-10-16T04:50:01;5.10;;;2.10;;
41470;SDS011;27211;51.220;5.308;2022-10-16T04:52:27;4.72;;;2.10;;
41470;SDS011;27211;51.220;5.308;2022-10-16T04:54:53;4.15;;;1.85;;
41470;SDS011;27211;51.220;5.308;2022-10-16T04:57:23;8.10;;;2.25;;
41470;SDS011;27211;51.220;5.308;2022-10-16T04:59:49;4.22;;;1.92;;
41470;SDS011;27211;51.220;5.308;2022-10-16T05:02:15;5.70;;;2.08;;
41470;SDS011;27211;51.220;5.308;2022-10-16T05:04:41;8.20;;;2.50;;
41470;SDS011;27211;51.220;5.308;2022-10-16T05:07:07;5.65;;;2.63;;
41470;SDS011;27211;51.220;5.308;2022-10-16T05:09:33;7.03;;;2.38;;
41470;SDS011;27211;51.220;5.308;2022-10-16T05:11:59;6.65;;;2.25;;
41470;SDS011;27211;51.220;5.308;2022-10-16T05:14:25;5.43;;;2.50;;
41470;SDS011;27211;51.220;5.308;2022-10-16T05:16:51;8.82;;;2.45;;
41470;SDS011;27211;51.220;5.308;2022-10-16T05:19:17;5.13;;;2.40;;
41470;SDS011;27211;51.220;5.308;2022-10-16T05:21:43;5.97;;;2.28;;
41470;SDS011;27211;51.220;5.308;2022-10-16T05:24:09;4.30;;;2.17;;
41470;SDS011;27211;51.220;5.308;2022-10-16T05:26:34;6.97;;;2.53;;
41470;SDS011;27211;51.220;5.308;2022-10-16T05:29:00;7.38;;;2.30;;
41470;SDS011;27211;51.220;5.308;2022-10-16T05:31:26;5.63;;;2.58;;
41470;SDS011;27211;51.220;5.308;2022-10-16T05:33:52;4.45;;;2.38;;
41470;SDS011;27211;51.220;5.308;2022-10-16T05:36:27;4.35;;;2.30;;
41470;SDS011;27211;51.220;5.308;2022-10-16T05:39:00;6.20;;;2.45;;
41470;SDS011;27211;51.220;5.308;2022-10-16T05:41:25;5.55;;;2.08;;
41470;SDS011;27211;51.220;5.308;2022-10-16T05:43:52;5.60;;;2.55;;
41470;SDS011;27211;51.220;5.308;2022-10-16T05:46:18;7.47;;;2.70;;
41470;SDS011;27211;51.220;5.308;2022-10-16T05:48:44;5.53;;;2.17;;
41470;SDS011;27211;51.220;5.308;2022-10-16T05:51:13;4.50;;;2.40;;
41470;SDS011;27211;51.220;5.308;2022-10-16T05:53:40;5.50;;;2.17;;
41470;SDS011;27211;51.220;5.308;2022-10-16T05:56:06;6.35;;;2.60;;
41470;SDS011;27211;51.220;5.308;2022-10-16T05:58:35;6.03;;;2.47;;
41470;SDS011;27211;51.220;5.308;2022-10-16T06:03:34;6.68;;;2.30;;
41470;SDS011;27211;51.220;5.308;2022-10-16T06:06:11;8.65;;;3.00;;
41470;SDS011;27211;51.220;5.308;2022-10-16T06:08:41;6.28;;;2.90;;
41470;SDS011;27211;51.220;5.308;2022-10-16T06:11:08;9.07;;;2.58;;
41470;SDS011;27211;51.220;5.308;2022-10-16T06:13:40;7.95;;;2.97;;
41470;SDS011;27211;51.220;5.308;2022-10-16T06:16:07;7.65;;;2.80;;
41470;SDS011;27211;51.220;5.308;2022-10-16T06:18:34;6.32;;;2.72;;
41470;SDS011;27211;51.220;5.308;2022-10-16T06:21:06;7.88;;;3.30;;
41470;SDS011;27211;51.220;5.308;2022-10-16T06:23:36;7.15;;;3.03;;
41470;SDS011;27211;51.220;5.308;2022-10-16T06:26:09;6.88;;;2.63;;
41470;SDS011;27211;51.220;5.308;2022-10-16T06:28:37;6.80;;;3.08;;
41470;SDS011;27211;51.220;5.308;2022-10-16T06:31:03;8.32;;;3.00;;
41470;SDS011;27211;51.220;5.308;2022-10-16T06:33:31;6.10;;;3.17;;
41470;SDS011;27211;51.220;5.308;2022-10-16T06:38:53;6.95;;;3.08;;
41470;SDS011;27211;51.220;5.308;2022-10-16T06:41:21;5.55;;;3.47;;
41470;SDS011;27211;51.220;5.308;2022-10-16T06:43:48;7.07;;;3.20;;
41470;SDS011;27211;51.220;5.308;2022-10-16T06:46:16;7.03;;;2.80;;
41470;SDS011;27211;51.220;5.308;2022-10-16T06:48:43;6.03;;;2.72;;
41470;SDS011;27211;51.220;5.308;2022-10-16T06:51:29;7.10;;;3.28;;
41470;SDS011;27211;51.220;5.308;2022-10-16T06:53:59;5.13;;;2.30;;
41470;SDS011;27211;51.220;5.308;2022-10-16T06:56:29;7.47;;;2.10;;
41470;SDS011;27211;51.220;5.308;2022-10-16T06:58:55;5.78;;;2.08;;
41470;SDS011;27211;51.220;5.308;2022-10-16T07:01:22;5.55;;;2.08;;
41470;SDS011;27211;51.220;5.308;2022-10-16T07:03:49;4.20;;;2.03;;
41470;SDS011;27211;51.220;5.308;2022-10-16T07:06:17;4.78;;;1.90;;
41470;SDS011;27211;51.220;5.308;2022-10-16T07:08:44;3.97;;;1.80;;
41470;SDS011;27211;51.220;5.308;2022-10-16T07:11:12;3.67;;;1.83;;
41470;SDS011;27211;51.220;5.308;2022-10-16T07:13:40;7.57;;;2.50;;
41470;SDS011;27211;51.220;5.308;2022-10-16T07:16:20;5.40;;;2.22;;
41470;SDS011;27211;51.220;5.308;2022-10-16T07:18:49;5.45;;;2.10;;
41470;SDS011;27211;51.220;5.308;2022-10-16T07:21:17;5.80;;;1.98;;
41470;SDS011;27211;51.220;5.308;2022-10-16T07:23:45;4.63;;;2.25;;
41470;SDS011;27211;51.220;5.308;2022-10-16T07:26:38;5.13;;;1.90;;
41470;SDS011;27211;51.220;5.308;2022-10-16T07:29:04;5.80;;;2.20;;
41470;SDS011;27211;51.220;5.308;2022-10-16T07:31:34;7.43;;;1.92;;
41470;SDS011;27211;51.220;5.308;2022-10-16T07:34:02;5.88;;;2.35;;
41470;SDS011;27211;51.220;5.308;2022-10-16T07:36:27;5.05;;;2.47;;
41470;SDS011;27211;51.220;5.308;2022-10-16T07:38:56;8.80;;;2.45;;
41470;SDS011;27211;51.220;5.308;2022-10-16T07:41:22;8.55;;;2.20;;
41470;SDS011;27211;51.220;5.308;2022-10-16T07:43:49;5.00;;;2.13;;
41470;SDS011;27211;51.220;5.308;2022-10-16T07:46:16;6.85;;;2.42;;
41470;SDS011;27211;51.220;5.308;2022-10-16T07:48:43;7.35;;;2.30;;
41470;SDS011;27211;51.220;5.308;2022-10-16T07:51:12;7.18;;;2.20;;
41470;SDS011;27211;51.220;5.308;2022-10-16T07:53:42;5.28;;;2.28;;
41470;SDS011;27211;51.220;5.308;2022-10-16T07:56:08;7.10;;;2.70;;
41470;SDS011;27211;51.220;5.308;2022-10-16T07:58:34;4.90;;;2.53;;
41470;SDS011;27211;51.220;5.308;2022-10-16T08:01:04;8.43;;;2.70;;
41470;SDS011;27211;51.220;5.308;2022-10-16T08:03:32;5.38;;;2.65;;
41470;SDS011;27211;51.220;5.308;2022-10-16T08:05:58;5.28;;;2.20;;
41470;SDS011;27211;51.220;5.308;2022-10-16T08:08:44;6.97;;;2.40;;
41470;SDS011;27211;51.220;5.308;2022-10-16T08:11:10;6.90;;;2.35;;
41470;SDS011;27211;51.220;5.308;2022-10-16T08:13:36;7.80;;;2.35;;
41470;SDS011;27211;51.220;5.308;2022-10-16T08:16:02;4.93;;;1.70;;
41470;SDS011;27211;51.220;5.308;2022-10-16T08:18:32;6.82;;;2.03;;
41470;SDS011;27211;51.220;5.308;2022-10-16T08:21:08;7.53;;;1.95;;
41470;SDS011;27211;51.220;5.308;2022-10-16T08:23:41;5.85;;;1.58;;
41470;SDS011;27211;51.220;5.308;2022-10-16T08:26:07;4.93;;;1.73;;
41470;SDS011;27211;51.220;5.308;2022-10-16T08:28:37;4.90;;;1.40;;
41470;SDS011;27211;51.220;5.308;2022-10-16T08:33:37;5.90;;;1.70;;
41470;SDS011;27211;51.220;5.308;2022-10-16T08:36:05;6.05;;;1.63;;
41470;SDS011;27211;51.220;5.308;2022-10-16T08:38:34;3.50;;;1.48;;
41470;SDS011;27211;51.220;5.308;2022-10-16T08:41:24;6.57;;;1.75;;
41470;SDS011;27211;51.220;5.308;2022-10-16T08:44:18;7.05;;;1.42;;
41470;SDS011;27211;51.220;5.308;2022-10-16T08:47:02;2.45;;;0.88;;
41470;SDS011;27211;51.220;5.308;2022-10-16T08:49:33;6.22;;;1.20;;
41470;SDS011;27211;51.220;5.308;2022-10-16T08:52:00;4.45;;;1.30;;
41470;SDS011;27211;51.220;5.308;2022-10-16T08:57:13;3.38;;;1.10;;
41470;SDS011;27211;51.220;5.308;2022-10-16T08:59:45;4.30;;;1.35;;
41470;SDS011;27211;51.220;5.308;2022-10-16T09:02:33;5.25;;;1.00;;
41470;SDS011;27211;51.220;5.308;2022-10-16T09:05:10;5.95;;;1.10;;
41470;SDS011;27211;51.220;5.308;2022-10-16T09:07:56;2.72;;;0.85;;
41470;SDS011;27211;51.220;5.308;2022-10-16T09:15:49;5.15;;;1.40;;
41470;SDS011;27211;51.220;5.308;2022-10-16T09:23:40;5.80;;;1.00;;
41470;SDS011;27211;51.220;5.308;2022-10-16T09:26:09;4.20;;;1.58;;
41470;SDS011;27211;51.220;5.308;2022-10-16T09:28:40;6.75;;;1.35;;
41470;SDS011;27211;51.220;5.308;2022-10-16T09:31:15;5.20;;;1.15;;
41470;SDS011;27211;51.220;5.308;2022-10-16T09:33:45;5.45;;;1.10;;
41470;SDS011;27211;51.220;5.308;2022-10-16T09:36:15;6.45;;;1.33;;
41470;SDS011;27211;51.220;5.308;2022-10-16T09:38:42;3.63;;;1.17;;
41470;SDS011;27211;51.220;5.308;2022-10-16T09:41:16;4.13;;;1.30;;
41470;SDS011;27211;51.220;5.308;2022-10-16T09:48:55;5.28;;;1.27;;
41470;SDS011;27211;51.220;5.308;2022-10-16T09:51:30;3.83;;;1.17;;
41470;SDS011;27211;51.220;5.308;2022-10-16T09:54:01;6.45;;;1.10;;
41470;SDS011;27211;51.220;5.308;2022-10-16T09:56:38;4.72;;;1.10;;
41470;SDS011;27211;51.220;5.308;2022-10-16T09:59:15;7.18;;;1.25;;
41470;SDS011;27211;51.220;5.308;2022-10-16T10:01:44;8.48;;;1.42;;
41470;SDS011;27211;51.220;5.308;2022-10-16T10:04:18;5.50;;;1.00;;
41470;SDS011;27211;51.220;5.308;2022-10-16T10:06:46;7.50;;;1.63;;
41470;SDS011;27211;51.220;5.308;2022-10-16T10:11:55;5.63;;;1.20;;
41470;SDS011;27211;51.220;5.308;2022-10-16T10:14:36;5.95;;;1.40;;
41470;SDS011;27211;51.220;5.308;2022-10-16T10:19:37;5.25;;;1.33;;
41470;SDS011;27211;51.220;5.308;2022-10-16T10:25:36;4.45;;;1.10;;
41470;SDS011;27211;51.220;5.308;2022-10-16T10:31:03;5.78;;;1.33;;
41470;SDS011;27211;51.220;5.308;2022-10-16T10:42:08;6.90;;;1.38;;
41470;SDS011;27211;51.220;5.308;2022-10-16T10:50:50;4.63;;;1.30;;
41470;SDS011;27211;51.220;5.308;2022-10-16T10:59:07;7.22;;;1.30;;
41470;SDS011;27211;51.220;5.308;2022-10-16T11:04:56;7.22;;;1.52;;
41470;SDS011;27211;51.220;5.308;2022-10-16T11:07:34;6.57;;;1.52;;
41470;SDS011;27211;51.220;5.308;2022-10-16T11:13:28;4.40;;;1.20;;
41470;SDS011;27211;51.220;5.308;2022-10-16T11:16:15;5.75;;;1.27;;
41470;SDS011;27211;51.220;5.308;2022-10-16T11:21:49;5.47;;;1.38;;
41470;SDS011;27211;51.220;5.308;2022-10-16T11:24:37;7.97;;;1.58;;
41470;SDS011;27211;51.220;5.308;2022-10-16T11:27:21;6.05;;;1.40;;
41470;SDS011;27211;51.220;5.308;2022-10-16T11:30:02;10.77;;;1.70;;
41470;SDS011;27211;51.220;5.308;2022-10-16T11:32:35;6.53;;;1.35;;
41470;SDS011;27211;51.220;5.308;2022-10-16T11:35:15;5.00;;;1.48;;
41470;SDS011;27211;51.220;5.308;2022-10-16T11:37:47;4.97;;;1.50;;
41470;SDS011;27211;51.220;5.308;2022-10-16T11:40:19;4.90;;;1.23;;
41470;SDS011;27211;51.220;5.308;2022-10-16T11:43:22;6.10;;;1.30;;
41470;SDS011;27211;51.220;5.308;2022-10-16T11:45:58;3.75;;;1.10;;
41470;SDS011;27211;51.220;5.308;2022-10-16T11:48:41;6.32;;;1.10;;
41470;SDS011;27211;51.220;5.308;2022-10-16T11:56:54;4.82;;;1.20;;
41470;SDS011;27211;51.220;5.308;2022-10-16T11:59:29;5.43;;;1.17;;
41470;SDS011;27211;51.220;5.308;2022-10-16T12:07:43;6.05;;;1.30;;
41470;SDS011;27211;51.220;5.308;2022-10-16T12:10:29;2.67;;;0.80;;
41470;SDS011;27211;51.220;5.308;2022-10-16T12:13:02;6.30;;;1.00;;
41470;SDS011;27211;51.220;5.308;2022-10-16T12:15:47;5.60;;;1.10;;
41470;SDS011;27211;51.220;5.308;2022-10-16T12:18:22;5.50;;;1.10;;
41470;SDS011;27211;51.220;5.308;2022-10-16T12:20:55;4.35;;;1.05;;
41470;SDS011;27211;51.220;5.308;2022-10-16T12:23:25;3.80;;;1.02;;
41470;SDS011;27211;51.220;5.308;2022-10-16T12:25:55;5.45;;;0.95;;
41470;SDS011;27211;51.220;5.308;2022-10-16T12:28:25;4.10;;;1.23;;
41470;SDS011;27211;51.220;5.308;2022-10-16T12:31:03;4.70;;;1.20;;
41470;SDS011;27211;51.220;5.308;2022-10-16T12:33:33;4.63;;;1.10;;
41470;SDS011;27211;51.220;5.308;2022-10-16T12:36:01;7.53;;;1.40;;
41470;SDS011;27211;51.220;5.308;2022-10-16T12:38:37;2.70;;;0.90;;
41470;SDS011;27211;51.220;5.308;2022-10-16T12:41:05;6.10;;;1.10;;
41470;SDS011;27211;51.220;5.308;2022-10-16T12:48:40;4.93;;;1.33;;
41470;SDS011;27211;51.220;5.308;2022-10-16T12:51:33;4.07;;;1.25;;
41470;SDS011;27211;51.220;5.308;2022-10-16T12:59:38;5.40;;;1.10;;
41470;SDS011;27211;51.220;5.308;2022-10-16T13:08:35;5.63;;;1.10;;
41470;SDS011;27211;51.220;5.308;2022-10-16T13:10:53;5.22;;;1.20;;
41470;SDS011;27211;51.220;5.308;2022-10-16T13:16:23;3.33;;;1.20;;
41470;SDS011;27211;51.220;5.308;2022-10-16T13:19:12;3.75;;;1.00;;
41470;SDS011;27211;51.220;5.308;2022-10-16T13:27:43;4.30;;;1.02;;
41470;SDS011;27211;51.220;5.308;2022-10-16T13:32:59;5.70;;;1.20;;
41470;SDS011;27211;51.220;5.308;2022-10-16T13:35:48;4.43;;;0.90;;
41470;SDS011;27211;51.220;5.308;2022-10-16T13:38:19;4.75;;;1.10;;
41470;SDS011;27211;51.220;5.308;2022-10-16T13:40:50;5.40;;;1.40;;
41470;SDS011;27211;51.220;5.308;2022-10-16T13:46:04;3.38;;;0.73;;
41470;SDS011;27211;51.220;5.308;2022-10-16T13:48:40;3.75;;;0.75;;
41470;SDS011;27211;51.220;5.308;2022-10-16T13:51:17;3.83;;;0.80;;
41470;SDS011;27211;51.220;5.308;2022-10-16T13:53:44;6.13;;;1.30;;
41470;SDS011;27211;51.220;5.308;2022-10-16T13:56:14;3.20;;;0.98;;
41470;SDS011;27211;51.220;5.308;2022-10-16T13:58:42;5.45;;;1.10;;
41470;SDS011;27211;51.220;5.308;2022-10-16T14:01:16;7.38;;;1.15;;
41470;SDS011;27211;51.220;5.308;2022-10-16T14:03:45;4.65;;;1.15;;
41470;SDS011;27211;51.220;5.308;2022-10-16T14:06:16;5.70;;;1.17;;
41470;SDS011;27211;51.220;5.308;2022-10-16T14:09:06;4.15;;;1.40;;
41470;SDS011;27211;51.220;5.308;2022-10-16T14:11:34;5.95;;;1.23;;
41470;SDS011;27211;51.220;5.308;2022-10-16T14:14:16;6.57;;;1.25;;
41470;SDS011;27211;51.220;5.308;2022-10-16T14:16:43;3.55;;;0.90;;
41470;SDS011;27211;51.220;5.308;2022-10-16T14:19:19;6.13;;;1.15;;
41470;SDS011;27211;51.220;5.308;2022-10-16T14:21:52;5.38;;;1.30;;
41470;SDS011;27211;51.220;5.308;2022-10-16T14:24:22;3.05;;;0.90;;
41470;SDS011;27211;51.220;5.308;2022-10-16T14:26:57;7.15;;;0.98;;
41470;SDS011;27211;51.220;5.308;2022-10-16T14:29:25;4.25;;;1.00;;
41470;SDS011;27211;51.220;5.308;2022-10-16T14:31:56;8.88;;;4.55;;
41470;SDS011;27211;51.220;5.308;2022-10-16T14:34:28;7.22;;;1.25;;
41470;SDS011;27211;51.220;5.308;2022-10-16T14:36:58;6.90;;;1.65;;
41470;SDS011;27211;51.220;5.308;2022-10-16T14:39:52;9.07;;;2.63;;
41470;SDS011;27211;51.220;5.308;2022-10-16T14:42:19;5.75;;;1.30;;
41470;SDS011;27211;51.220;5.308;2022-10-16T14:44:48;8.18;;;3.03;;
41470;SDS011;27211;51.220;5.308;2022-10-16T14:47:18;5.13;;;1.95;;
41470;SDS011;27211;51.220;5.308;2022-10-16T14:49:48;5.75;;;2.03;;
41470;SDS011;27211;51.220;5.308;2022-10-16T14:52:14;5.80;;;1.63;;
41470;SDS011;27211;51.220;5.308;2022-10-16T14:54:41;6.40;;;1.25;;
41470;SDS011;27211;51.220;5.308;2022-10-16T14:57:17;4.03;;;1.02;;
41470;SDS011;27211;51.220;5.308;2022-10-16T14:59:57;4.88;;;1.17;;
41470;SDS011;27211;51.220;5.308;2022-10-16T15:04:56;3.47;;;1.23;;
41470;SDS011;27211;51.220;5.308;2022-10-16T15:07:23;4.22;;;1.30;;
41470;SDS011;27211;51.220;5.308;2022-10-16T15:09:49;6.80;;;1.10;;
41470;SDS011;27211;51.220;5.308;2022-10-16T15:12:16;4.93;;;1.13;;
41470;SDS011;27211;51.220;5.308;2022-10-16T15:14:42;3.05;;;1.10;;
41470;SDS011;27211;51.220;5.308;2022-10-16T15:17:14;6.97;;;1.30;;
41470;SDS011;27211;51.220;5.308;2022-10-16T15:19:43;3.97;;;1.30;;
41470;SDS011;27211;51.220;5.308;2022-10-16T15:22:10;5.63;;;1.30;;
41470;SDS011;27211;51.220;5.308;2022-10-16T15:24:36;5.43;;;1.10;;
41470;SDS011;27211;51.220;5.308;2022-10-16T15:27:02;3.28;;;0.98;;
41470;SDS011;27211;51.220;5.308;2022-10-16T15:29:28;9.18;;;1.17;;
41470;SDS011;27211;51.220;5.308;2022-10-16T15:31:53;4.60;;;1.00;;
41470;SDS011;27211;51.220;5.308;2022-10-16T15:34:19;5.90;;;1.30;;
41470;SDS011;27211;51.220;5.308;2022-10-16T15:36:48;4.47;;;1.30;;
41470;SDS011;27211;51.220;5.308;2022-10-16T15:39:15;5.50;;;1.45;;
41470;SDS011;27211;51.220;5.308;2022-10-16T15:41:44;3.60;;;1.35;;
41470;SDS011;27211;51.220;5.308;2022-10-16T15:44:16;7.03;;;1.13;;
41470;SDS011;27211;51.220;5.308;2022-10-16T15:46:42;5.85;;;1.40;;
41470;SDS011;27211;51.220;5.308;2022-10-16T15:49:08;4.45;;;1.38;;
41470;SDS011;27211;51.220;5.308;2022-10-16T15:51:37;6.72;;;2.08;;
41470;SDS011;27211;51.220;5.308;2022-10-16T15:54:04;8.65;;;2.00;;
41470;SDS011;27211;51.220;5.308;2022-10-16T15:56:30;11.57;;;3.08;;
41470;SDS011;27211;51.220;5.308;2022-10-16T15:58:58;9.43;;;3.60;;
41470;SDS011;27211;51.220;5.308;2022-10-16T16:01:25;8.40;;;2.65;;
41470;SDS011;27211;51.220;5.308;2022-10-16T16:03:55;7.30;;;2.67;;
41470;SDS011;27211;51.220;5.308;2022-10-16T16:06:23;8.65;;;2.70;;
41470;SDS011;27211;51.220;5.308;2022-10-16T16:08:50;9.05;;;2.58;;
41470;SDS011;27211;51.220;5.308;2022-10-16T16:11:16;7.00;;;2.20;;
41470;SDS011;27211;51.220;5.308;2022-10-16T16:13:45;7.18;;;3.10;;
41470;SDS011;27211;51.220;5.308;2022-10-16T16:16:14;8.00;;;2.97;;
41470;SDS011;27211;51.220;5.308;2022-10-16T16:18:44;10.25;;;2.30;;
41470;SDS011;27211;51.220;5.308;2022-10-16T16:21:10;6.30;;;1.63;;
41470;SDS011;27211;51.220;5.308;2022-10-16T16:23:37;5.85;;;2.22;;
41470;SDS011;27211;51.220;5.308;2022-10-16T16:26:04;7.60;;;2.55;;
41470;SDS011;27211;51.220;5.308;2022-10-16T16:28:32;5.53;;;2.30;;
41470;SDS011;27211;51.220;5.308;2022-10-16T16:30:59;6.18;;;2.10;;
41470;SDS011;27211;51.220;5.308;2022-10-16T16:36:00;5.57;;;1.98;;
41470;SDS011;27211;51.220;5.308;2022-10-16T16:38:29;6.07;;;2.35;;
41470;SDS011;27211;51.220;5.308;2022-10-16T16:40:56;5.57;;;2.17;;
41470;SDS011;27211;51.220;5.308;2022-10-16T16:43:25;9.35;;;2.40;;
41470;SDS011;27211;51.220;5.308;2022-10-16T16:45:54;16.92;;;7.38;;
41470;SDS011;27211;51.220;5.308;2022-10-16T16:48:20;20.17;;;11.38;;
41470;SDS011;27211;51.220;5.308;2022-10-16T16:50:46;9.80;;;3.90;;
41470;SDS011;27211;51.220;5.308;2022-10-16T16:53:12;8.45;;;3.20;;
41470;SDS011;27211;51.220;5.308;2022-10-16T16:55:38;6.63;;;2.90;;
41470;SDS011;27211;51.220;5.308;2022-10-16T16:58:04;7.05;;;3.35;;
41470;SDS011;27211;51.220;5.308;2022-10-16T17:00:30;11.63;;;3.10;;
41470;SDS011;27211;51.220;5.308;2022-10-16T17:02:56;6.50;;;2.80;;
41470;SDS011;27211;51.220;5.308;2022-10-16T17:05:23;6.65;;;2.53;;
41470;SDS011;27211;51.220;5.308;2022-10-16T17:07:49;8.10;;;4.30;;
41470;SDS011;27211;51.220;5.308;2022-10-16T17:10:14;8.77;;;3.10;;